KSLK/SLK METAR and TAF weather

Enter ICAO airport designator
Station Type Date Time Source
KSLK METAR 2020/07/14 23:51 UTC NOAA

KSLK 142351Z AUTO 05004KT 10SM CLR 19/15 A3009 RMK AO2 SLP186 T01940150 10239 20194 53015


Station Type Date Time Source
KSLK Decoded METAR 2020/07/14 23:51 UTC NOAA

ADIRONDACK REGIONAL AIRPORT, NY, United States (KSLK) 44-24N 074-12W 498M
Jul 14, 2020 - 07:51 PM EDT / 2020.07.14 2351 UTC
Wind: from the NE (050 degrees) at 5 MPH (4 KT):0
Visibility: 10 mile(s):0
Sky conditions: clear
Temperature: 66.9 F (19.4 C)
Dew Point: 59.0 F (15.0 C)
Relative Humidity: 75%
Pressure (altimeter): 30.09 in. Hg (1018 hPa)
Pressure tendency: 0.04 inches (1.5 hPa) higher than three hours ago
ob: KSLK 142351Z AUTO 05004KT 10SM CLR 19/15 A3009 RMK AO2 SLP186 T01940150 10239 20194 53015
cycle: 0

Station Type Date Time Source
KSLK TAF 2020/07/14 18:40 UTC NOAA

TAF KSLK 141738Z 1418/1518 VRB04KT P6SM SCT015 BKN050
TEMPO 1418/1422 3SM -SHRA BR BKN015
FM150000 VRB03KT P6SM SCT050
FM150500 00000KT 3SM BR SCT001
TEMPO 1507/1511 1/4SM FG VV001
FM151300 VRB03KT P6SM SCT025

Example: see airport list